createdAt,value
2023-04-23T06:21:04.635Z,291.19
2023-04-23T06:31:04.637Z,302.16
2023-04-23T06:41:04.725Z,343.55
2023-04-23T06:51:04.783Z,181.46
2023-04-23T07:01:04.702Z,192.42
2023-04-23T07:11:04.749Z,181.61
2023-04-23T07:21:04.595Z,97.65
2023-04-23T07:31:04.626Z,190.61
2023-04-23T07:41:04.732Z,179.74
2023-04-23T07:51:04.713Z,180.00
2023-04-23T08:01:04.866Z,181.92
2023-04-23T08:11:04.734Z,184.61
2023-04-23T08:21:04.887Z,185.75
2023-04-23T08:31:15.104Z,178.94
2023-04-23T08:41:04.963Z,179.45
2023-04-23T08:51:04.821Z,178.52
2023-04-23T09:01:04.913Z,180.48
2023-04-23T09:11:04.924Z,180.71
2023-04-23T09:21:04.975Z,167.85
2023-04-23T09:31:04.921Z,176.32
2023-04-23T09:41:04.802Z,170.09
2023-04-23T09:51:04.782Z,162.20
2023-04-23T10:01:05.099Z,181.38
2023-04-23T10:11:20.144Z,217.08
2023-04-23T10:21:04.979Z,164.54
2023-04-23T10:31:04.889Z,158.85
2023-04-23T10:41:04.900Z,168.67
2023-04-23T10:51:30.584Z,177.26
2023-04-23T11:01:04.930Z,189.24
2023-04-23T11:11:04.904Z,165.27
2023-04-23T11:21:04.754Z,175.75
2023-04-23T11:31:04.934Z,173.15
2023-04-23T11:41:04.887Z,172.76
2023-04-23T11:51:05.165Z,161.36
2023-04-23T12:01:05.123Z,178.76
2023-04-23T12:11:05.084Z,169.91
2023-04-23T12:21:04.950Z,171.82
2023-04-23T12:31:05.237Z,170.10
2023-04-23T12:41:04.992Z,163.40
2023-04-23T12:51:05.250Z,149.86
2023-04-23T13:01:04.979Z,173.32
2023-04-23T13:11:04.993Z,164.06
2023-04-23T13:21:05.245Z,155.47
2023-04-23T13:31:05.115Z,161.09
2023-04-23T13:41:05.278Z,146.82
2023-04-23T13:51:13.598Z,151.01
2023-04-23T14:01:05.095Z,167.89
2023-04-23T14:11:05.190Z,180.70
2023-04-23T14:21:05.134Z,185.66
2023-04-23T14:31:05.311Z,186.20
2023-04-23T14:41:05.155Z,180.81
2023-04-23T14:51:05.125Z,180.00
2023-04-23T15:01:06.942Z,180.00
2023-04-23T15:11:05.272Z,180.00
2023-04-23T15:21:05.328Z,5.04
2023-04-23T15:31:05.192Z,90.55
2023-04-23T15:41:05.473Z,90.29
2023-04-23T15:51:05.345Z,100.38
2023-04-23T16:01:05.394Z,92.46
2023-04-23T16:11:05.243Z,122.69
2023-04-23T16:21:05.420Z,117.02
2023-04-23T16:31:05.340Z,135.14
2023-04-23T16:41:05.469Z,121.54
2023-04-23T16:51:05.429Z,90.00
2023-04-23T17:01:05.296Z,90.77
2023-04-23T17:11:05.350Z,107.93
2023-04-23T17:21:05.419Z,90.00
2023-04-23T17:31:05.681Z,90.00
2023-04-23T17:41:05.534Z,90.00
2023-04-23T17:51:05.604Z,90.00
2023-04-23T18:01:05.689Z,90.08
2023-04-23T18:11:05.442Z,92.28
2023-04-23T18:21:05.387Z,90.00
2023-04-23T18:31:05.731Z,91.08
2023-04-23T18:41:05.732Z,90.57
2023-04-23T18:51:05.944Z,90.00
2023-04-23T19:01:05.867Z,90.00
2023-04-23T19:11:06.289Z,90.00
2023-04-23T19:21:06.103Z,90.00
